createdAt,value
2017-09-26T00:00:30.737Z,24.67
2017-09-26T00:02:58.045Z,24.60
2017-09-26T00:05:27.322Z,24.63
2017-09-26T00:07:54.623Z,24.80
2017-09-26T00:10:22.913Z,24.97
2017-09-26T00:12:50.244Z,25.80
2017-09-26T00:15:17.585Z,26.17
2017-09-26T00:17:44.930Z,26.43
2017-09-26T00:20:12.306Z,26.40
2017-09-26T00:22:39.618Z,27.60
2017-09-26T00:25:06.940Z,26.13
2017-09-26T00:27:34.264Z,26.93
2017-09-26T00:30:01.573Z,26.83
2017-09-26T00:32:28.894Z,27.50
2017-09-26T00:34:56.200Z,27.07
2017-09-26T00:37:23.524Z,27.30
2017-09-26T00:39:50.853Z,28.30
2017-09-26T00:42:18.186Z,29.90
2017-09-26T00:44:45.688Z,30.63
2017-09-26T00:47:13.930Z,30.93
2017-09-26T00:49:42.213Z,30.60
2017-09-26T00:52:09.549Z,30.80
2017-09-26T00:54:36.938Z,30.53
2017-09-26T00:57:04.240Z,31.50
2017-09-26T00:59:31.580Z,31.00
2017-09-26T01:01:58.906Z,29.03
2017-09-26T01:04:26.218Z,29.87
2017-09-26T01:06:54.309Z,29.40
2017-09-26T01:09:21.991Z,29.23
2017-09-26T01:11:49.594Z,30.87
2017-09-26T01:14:16.896Z,29.70
2017-09-26T01:16:44.221Z,32.40
2017-09-26T01:19:11.525Z,32.27
2017-09-26T01:21:38.881Z,31.67
2017-09-26T01:24:06.197Z,30.87
2017-09-26T01:26:33.556Z,31.83
2017-09-26T01:29:00.882Z,33.03
2017-09-26T01:31:28.245Z,33.80
2017-09-26T01:33:55.561Z,33.63
2017-09-26T01:36:22.892Z,33.00
2017-09-26T01:38:50.196Z,33.27
2017-09-26T01:41:20.405Z,35.17
2017-09-26T01:43:47.719Z,33.97
2017-09-26T01:46:15.061Z,33.20
2017-09-26T01:48:42.384Z,33.83
2017-09-26T01:51:10.071Z,35.00
2017-09-26T01:53:39.320Z,33.53
2017-09-26T01:56:07.445Z,33.60
2017-09-26T01:58:49.647Z,32.90
2017-09-26T02:01:16.948Z,33.57
2017-09-26T02:03:44.273Z,35.07
2017-09-26T02:06:11.585Z,33.83
2017-09-26T02:08:38.940Z,34.07
2017-09-26T02:11:06.267Z,34.53
2017-09-26T02:13:33.617Z,33.37
2017-09-26T02:16:00.953Z,34.60
2017-09-26T02:18:28.297Z,34.13
2017-09-26T02:20:55.645Z,35.00
2017-09-26T02:23:22.993Z,34.27
2017-09-26T02:25:50.304Z,32.87
2017-09-26T02:28:17.628Z,34.30
2017-09-26T02:30:44.933Z,33.37
2017-09-26T02:33:12.254Z,34.20
2017-09-26T02:35:39.588Z,34.80
2017-09-26T02:38:06.934Z,34.50
2017-09-26T02:40:34.269Z,33.87
2017-09-26T02:43:02.521Z,36.67
2017-09-26T02:45:29.874Z,36.30
2017-09-26T02:47:57.244Z,35.73
2017-09-26T02:50:24.561Z,35.77
2017-09-26T02:52:51.889Z,35.73
2017-09-26T02:55:19.221Z,34.20
2017-09-26T02:57:46.525Z,35.07
2017-09-26T03:00:13.836Z,35.47
2017-09-26T03:02:41.168Z,34.67
2017-09-26T03:05:08.485Z,34.97
2017-09-26T03:07:36.173Z,34.27
2017-09-26T03:10:03.492Z,33.97
2017-09-26T03:12:30.845Z,36.13
2017-09-26T03:14:58.177Z,36.33
2017-09-26T03:17:25.536Z,35.67
2017-09-26T03:19:52.841Z,34.60
2017-09-26T03:22:20.520Z,36.13
2017-09-26T03:24:47.841Z,33.97
2017-09-26T03:27:15.170Z,34.87
2017-09-26T03:29:42.530Z,35.27
2017-09-26T03:32:09.854Z,34.33
2017-09-26T03:34:37.559Z,35.80
2017-09-26T03:37:04.850Z,35.60
2017-09-26T03:39:32.205Z,36.30
2017-09-26T03:41:59.522Z,35.60
2017-09-26T03:44:26.988Z,36.87
2017-09-26T03:46:54.305Z,34.87
2017-09-26T03:49:21.659Z,35.20
2017-09-26T03:51:48.985Z,34.47
2017-09-26T03:54:16.293Z,35.77
2017-09-26T03:56:43.612Z,34.77
2017-09-26T03:59:10.918Z,35.00
2017-09-26T04:01:38.273Z,36.30
2017-09-26T04:04:05.601Z,34.70
2017-09-26T04:06:32.948Z,34.57
2017-09-26T04:09:00.277Z,36.03
2017-09-26T04:11:27.637Z,34.00
2017-09-26T04:13:54.967Z,36.50
2017-09-26T04:16:22.316Z,36.03
2017-09-26T04:18:49.844Z,34.43
2017-09-26T04:21:17.169Z,35.13
2017-09-26T04:23:44.480Z,36.13
2017-09-26T04:26:11.796Z,35.93
2017-09-26T04:28:39.143Z,35.93
2017-09-26T04:31:06.453Z,36.60
2017-09-26T04:33:33.809Z,37.27
2017-09-26T04:36:01.438Z,38.37
2017-09-26T04:38:28.761Z,34.30
2017-09-26T04:40:56.125Z,33.97
2017-09-26T04:43:23.445Z,36.33
2017-09-26T04:45:50.756Z,34.80
2017-09-26T04:48:18.087Z,35.70
2017-09-26T04:50:45.421Z,35.00
2017-09-26T04:53:12.748Z,32.50
2017-09-26T04:55:40.066Z,32.57
2017-09-26T04:58:07.405Z,35.10
2017-09-26T05:00:34.717Z,34.33
2017-09-26T05:03:02.026Z,35.00
2017-09-26T05:05:29.345Z,34.23
2017-09-26T05:07:56.670Z,33.90
2017-09-26T05:10:23.987Z,34.50
2017-09-26T05:12:51.530Z,33.50
2017-09-26T05:15:18.857Z,34.07
2017-09-26T05:17:46.156Z,33.27
2017-09-26T05:20:13.496Z,33.27
2017-09-26T05:22:40.848Z,34.03
2017-09-26T05:25:08.196Z,33.80
2017-09-26T05:27:35.530Z,35.53
2017-09-26T05:30:02.840Z,36.10
2017-09-26T05:32:30.196Z,36.00
2017-09-26T05:34:57.537Z,35.17
2017-09-26T05:37:24.850Z,34.83
2017-09-26T05:39:52.168Z,33.60
2017-09-26T05:42:19.485Z,34.47
2017-09-26T05:44:46.821Z,34.63
2017-09-26T05:47:14.137Z,33.90
2017-09-26T05:49:41.468Z,34.00
2017-09-26T05:52:08.819Z,34.33
2017-09-26T05:54:36.165Z,33.27
2017-09-26T05:57:04.473Z,32.33
2017-09-26T05:59:31.796Z,34.90
2017-09-26T06:01:59.096Z,33.70
2017-09-26T06:04:26.448Z,33.23
2017-09-26T06:06:53.797Z,34.03
2017-09-26T06:09:21.148Z,34.03
2017-09-26T06:11:48.449Z,33.63
2017-09-26T06:14:15.756Z,32.07
2017-09-26T06:16:43.082Z,31.90
2017-09-26T06:19:10.410Z,32.27
2017-09-26T06:21:37.762Z,33.23
2017-09-26T06:24:05.114Z,33.67
2017-09-26T06:26:32.460Z,32.13
2017-09-26T06:28:59.755Z,33.47
2017-09-26T06:31:27.105Z,32.83
2017-09-26T06:33:54.728Z,34.40
2017-09-26T06:36:22.065Z,34.70
2017-09-26T06:38:49.529Z,35.80
2017-09-26T06:41:16.852Z,34.90
2017-09-26T06:43:44.157Z,32.90
2017-09-26T06:46:11.501Z,33.43
2017-09-26T06:48:38.804Z,34.50
2017-09-26T06:51:06.120Z,33.70
2017-09-26T06:53:33.442Z,34.30
2017-09-26T06:56:00.744Z,33.07
2017-09-26T06:58:28.059Z,36.20
2017-09-26T07:00:55.384Z,33.17
2017-09-26T07:03:22.713Z,31.80
2017-09-26T07:05:50.072Z,32.80
2017-09-26T07:08:17.440Z,33.40
2017-09-26T07:10:44.793Z,32.00
2017-09-26T07:13:12.111Z,32.40
2017-09-26T07:15:39.929Z,33.10
2017-09-26T07:18:07.269Z,33.33
2017-09-26T07:20:34.632Z,32.00
2017-09-26T07:23:02.005Z,34.40
2017-09-26T07:25:29.316Z,32.40
2017-09-26T07:27:56.661Z,31.93
2017-09-26T07:30:24.000Z,31.83
2017-09-26T07:32:51.337Z,32.63
2017-09-26T07:35:18.692Z,32.67
2017-09-26T07:37:46.013Z,32.20
2017-09-26T07:40:13.357Z,32.83
2017-09-26T07:42:40.665Z,31.23
2017-09-26T07:45:07.997Z,31.00
2017-09-26T07:47:35.318Z,32.10
2017-09-26T07:50:02.664Z,29.47
2017-09-26T07:52:30.256Z,31.93
2017-09-26T07:54:57.611Z,31.23
2017-09-26T07:57:24.924Z,30.00
2017-09-26T07:59:52.248Z,30.90
2017-09-26T08:02:19.716Z,31.10
2017-09-26T08:04:48.076Z,31.90
2017-09-26T08:07:15.685Z,29.87
2017-09-26T08:09:43.206Z,29.00
2017-09-26T08:12:10.552Z,30.13
2017-09-26T08:14:37.889Z,29.20
2017-09-26T08:17:05.232Z,28.50
2017-09-26T08:19:32.597Z,27.83
2017-09-26T08:21:59.941Z,27.50
2017-09-26T08:24:27.270Z,27.47
2017-09-26T08:26:54.884Z,28.70
2017-09-26T08:29:22.430Z,27.80
2017-09-26T08:31:49.833Z,28.60
2017-09-26T08:34:17.157Z,27.53
2017-09-26T08:36:44.465Z,28.90
2017-09-26T08:39:11.862Z,25.57
2017-09-26T08:41:39.168Z,27.00
2017-09-26T08:44:06.508Z,27.57
2017-09-26T08:46:33.836Z,27.60
2017-09-26T08:49:01.198Z,26.53
2017-09-26T08:51:28.552Z,27.30
2017-09-26T08:53:56.404Z,26.77
2017-09-26T08:56:23.705Z,25.43
2017-09-26T08:58:51.036Z,25.70
2017-09-26T09:01:18.352Z,26.93
2017-09-26T09:03:45.661Z,27.70
2017-09-26T09:06:13.076Z,24.90
2017-09-26T09:08:40.404Z,25.10
2017-09-26T09:11:07.726Z,25.50
2017-09-26T09:13:35.024Z,25.63
2017-09-26T09:16:02.660Z,24.93
2017-09-26T09:18:29.985Z,25.53
2017-09-26T09:20:57.337Z,25.33
2017-09-26T09:23:24.655Z,24.47
2017-09-26T09:25:52.036Z,26.03
2017-09-26T09:28:19.350Z,24.97
2017-09-26T09:30:46.677Z,23.97
2017-09-26T09:33:13.998Z,24.47
2017-09-26T09:35:41.299Z,26.33
2017-09-26T09:38:08.616Z,26.53
2017-09-26T09:40:35.940Z,27.00
2017-09-26T09:43:03.256Z,24.50
2017-09-26T09:45:30.564Z,24.73
2017-09-26T09:47:57.893Z,26.23
2017-09-26T09:50:25.225Z,25.63
2017-09-26T09:52:52.584Z,24.23
2017-09-26T09:55:19.916Z,26.20
2017-09-26T09:57:47.244Z,25.83
2017-09-26T10:00:15.492Z,25.47
2017-09-26T10:02:42.871Z,25.80
2017-09-26T10:05:10.172Z,25.23
2017-09-26T10:07:37.485Z,26.30
2017-09-26T10:10:04.803Z,25.67
2017-09-26T10:12:32.104Z,25.60
2017-09-26T10:15:00.408Z,25.00
2017-09-26T10:17:27.708Z,25.83
2017-09-26T10:19:55.080Z,25.50
2017-09-26T10:22:22.410Z,25.23
2017-09-26T10:24:49.738Z,25.67
2017-09-26T10:27:17.056Z,25.80
2017-09-26T10:29:44.572Z,25.07
2017-09-26T10:32:12.368Z,24.43
2017-09-26T10:34:41.937Z,25.23
2017-09-26T10:37:09.260Z,25.30
2017-09-26T10:39:37.561Z,23.97
2017-09-26T10:42:04.913Z,22.90
2017-09-26T10:44:32.242Z,21.60
2017-09-26T10:46:59.611Z,23.10
2017-09-26T10:49:26.953Z,22.80
2017-09-26T10:51:54.296Z,21.80
2017-09-26T10:54:21.909Z,22.60
2017-09-26T10:56:49.257Z,22.00
2017-09-26T10:59:16.729Z,22.00
2017-09-26T11:01:44.024Z,22.50
2017-09-26T11:04:11.436Z,23.17
2017-09-26T11:06:38.745Z,22.93
2017-09-26T11:09:06.380Z,23.30
2017-09-26T11:11:33.694Z,22.73
2017-09-26T11:14:01.035Z,23.17
2017-09-26T11:16:28.329Z,23.90
2017-09-26T11:18:55.651Z,22.60
2017-09-26T11:21:22.951Z,23.20
2017-09-26T11:23:50.432Z,22.17
2017-09-26T11:26:17.781Z,22.83
2017-09-26T11:28:45.737Z,24.27
2017-09-26T11:31:13.051Z,21.70
2017-09-26T11:33:40.392Z,22.67
2017-09-26T11:36:07.712Z,21.10
2017-09-26T11:38:35.215Z,21.73
2017-09-26T11:41:02.553Z,22.60
2017-09-26T11:43:29.853Z,22.37
2017-09-26T11:45:57.185Z,22.17
2017-09-26T11:48:24.488Z,22.37
2017-09-26T11:50:51.804Z,22.60
2017-09-26T11:53:19.116Z,22.63
2017-09-26T11:55:46.477Z,24.87
2017-09-26T11:58:14.881Z,24.40
2017-09-26T12:00:42.385Z,22.80
2017-09-26T12:03:09.788Z,22.67
2017-09-26T12:05:37.125Z,22.40
2017-09-26T12:08:04.429Z,21.10
2017-09-26T12:10:31.804Z,22.87
2017-09-26T12:13:04.851Z,22.50
2017-09-26T12:15:32.160Z,24.00
2017-09-26T12:17:59.526Z,23.70
2017-09-26T12:20:26.851Z,22.23
2017-09-26T12:22:54.208Z,22.60
2017-09-26T12:25:21.590Z,22.73
2017-09-26T12:27:49.913Z,23.70
2017-09-26T12:30:17.279Z,24.43
2017-09-26T12:32:44.653Z,24.10
2017-09-26T12:35:11.997Z,24.93
2017-09-26T12:37:39.409Z,25.23
2017-09-26T12:40:06.802Z,26.17
2017-09-26T12:42:34.153Z,25.10
2017-09-26T12:45:01.512Z,24.50
2017-09-26T12:47:28.883Z,23.77
2017-09-26T12:49:56.617Z,25.37
2017-09-26T12:52:23.915Z,24.13
2017-09-26T12:54:51.273Z,22.60
2017-09-26T12:57:18.626Z,23.83
2017-09-26T12:59:45.966Z,24.70
2017-09-26T13:02:13.261Z,24.17
2017-09-26T13:04:40.585Z,22.60
2017-09-26T13:07:07.887Z,23.47
2017-09-26T13:09:35.204Z,23.90
2017-09-26T13:12:02.553Z,23.13
2017-09-26T13:14:29.947Z,23.63
2017-09-26T13:16:57.252Z,23.97
2017-09-26T13:19:24.610Z,24.67
2017-09-26T13:21:51.968Z,24.90
2017-09-26T13:24:19.408Z,23.97
2017-09-26T13:26:46.741Z,25.00
2017-09-26T13:29:14.185Z,22.90
2017-09-26T13:31:41.601Z,23.63
2017-09-26T13:34:08.924Z,23.97
2017-09-26T13:36:36.288Z,23.20
2017-09-26T13:39:03.653Z,24.33
2017-09-26T13:41:31.004Z,23.23
2017-09-26T13:43:58.313Z,23.97
2017-09-26T13:46:25.644Z,23.83
2017-09-26T13:48:53.047Z,24.50
2017-09-26T13:51:20.661Z,23.70
2017-09-26T13:53:47.948Z,24.20
2017-09-26T13:56:15.280Z,25.00
2017-09-26T13:58:42.673Z,25.70
2017-09-26T14:01:09.985Z,23.80
2017-09-26T14:03:37.494Z,25.40
2017-09-26T14:06:04.840Z,24.77
2017-09-26T14:08:32.168Z,23.73
2017-09-26T14:10:59.475Z,23.17
2017-09-26T14:13:26.809Z,23.33
2017-09-26T14:15:54.134Z,23.23
2017-09-26T14:18:21.480Z,23.80
2017-09-26T14:20:49.121Z,22.87
2017-09-26T14:23:16.476Z,24.37
2017-09-26T14:25:43.799Z,23.40
2017-09-26T14:28:11.150Z,23.57
2017-09-26T14:30:38.489Z,23.40
2017-09-26T14:33:05.789Z,24.63
2017-09-26T14:35:33.159Z,22.87
2017-09-26T14:38:00.469Z,23.30
2017-09-26T14:40:27.820Z,24.87
2017-09-26T14:42:55.135Z,23.90
2017-09-26T14:45:22.457Z,24.47
2017-09-26T14:47:49.768Z,24.87
2017-09-26T14:50:17.159Z,25.07
2017-09-26T14:52:44.500Z,26.90
2017-09-26T14:55:11.812Z,25.77
2017-09-26T14:57:39.129Z,26.67
2017-09-26T15:00:06.458Z,27.13
2017-09-26T15:02:34.583Z,26.13
2017-09-26T15:05:01.944Z,26.77
2017-09-26T15:07:29.236Z,26.03
2017-09-26T15:09:56.560Z,26.13
2017-09-26T15:12:23.879Z,27.20
2017-09-26T15:14:51.196Z,24.30
2017-09-26T15:17:18.502Z,25.43
2017-09-26T15:19:46.145Z,24.37
2017-09-26T15:22:13.469Z,24.97
2017-09-26T15:24:40.817Z,25.07
2017-09-26T15:27:08.216Z,25.23
2017-09-26T15:29:36.528Z,23.97
2017-09-26T15:32:04.139Z,23.37
2017-09-26T15:34:31.443Z,25.40
2017-09-26T15:36:58.763Z,26.20
2017-09-26T15:39:26.093Z,26.30
2017-09-26T15:41:53.417Z,28.37
2017-09-26T15:44:20.764Z,29.10
2017-09-26T15:46:48.085Z,28.00
2017-09-26T15:49:15.387Z,29.37
2017-09-26T15:51:42.730Z,28.47
2017-09-26T15:54:10.034Z,26.73
2017-09-26T15:56:37.349Z,26.43
2017-09-26T15:59:04.669Z,26.27
2017-09-26T16:01:31.980Z,24.83
2017-09-26T16:03:59.324Z,25.53
2017-09-26T16:06:26.640Z,26.27
2017-09-26T16:08:54.033Z,26.03
2017-09-26T16:11:21.333Z,25.20
2017-09-26T16:13:48.718Z,26.07
2017-09-26T16:16:16.448Z,25.20
2017-09-26T16:18:43.785Z,24.57
2017-09-26T16:21:11.110Z,25.90
2017-09-26T16:23:39.371Z,25.57
2017-09-26T16:26:06.700Z,24.60
2017-09-26T16:28:34.043Z,25.10
2017-09-26T16:31:01.404Z,25.13
2017-09-26T16:33:28.734Z,26.27
2017-09-26T16:35:56.055Z,25.70
2017-09-26T16:38:23.364Z,25.40
2017-09-26T16:40:50.857Z,26.70
2017-09-26T16:43:18.180Z,27.03
2017-09-26T16:45:45.497Z,28.00
2017-09-26T16:48:12.804Z,27.77
2017-09-26T16:50:40.142Z,27.87
2017-09-26T16:53:07.796Z,28.47
2017-09-26T16:55:35.131Z,28.97
2017-09-26T16:58:02.451Z,27.17
2017-09-26T17:00:29.840Z,26.40
2017-09-26T17:02:57.143Z,28.20
2017-09-26T17:05:24.464Z,27.90
2017-09-26T17:07:51.833Z,28.50
2017-09-26T17:10:19.165Z,28.73
2017-09-26T17:12:47.437Z,28.73
2017-09-26T17:15:14.777Z,29.33
2017-09-26T17:17:42.165Z,28.53
2017-09-26T17:20:09.627Z,27.07
2017-09-26T17:22:37.155Z,26.10
2017-09-26T17:25:04.456Z,28.50
2017-09-26T17:27:31.844Z,27.07
2017-09-26T17:29:59.145Z,27.67
2017-09-26T17:32:26.468Z,28.20
2017-09-26T17:34:53.784Z,27.80
2017-09-26T17:37:21.109Z,30.33
2017-09-26T17:39:48.409Z,27.40
2017-09-26T17:42:15.758Z,29.47
2017-09-26T17:44:43.056Z,31.70
2017-09-26T19:09:07.343Z,29.27
2017-09-26T19:11:34.979Z,29.83
2017-09-26T19:14:02.312Z,30.67
2017-09-26T19:16:29.629Z,32.70
2017-09-26T19:18:57.923Z,31.77
2017-09-26T19:21:25.266Z,32.03
2017-09-26T19:23:52.592Z,30.70
2017-09-26T19:26:19.900Z,32.40
2017-09-26T19:28:47.269Z,30.00
2017-09-26T19:31:14.568Z,31.50
2017-09-26T19:33:41.896Z,31.27
2017-09-26T19:36:09.209Z,30.57
2017-09-26T19:38:36.562Z,32.97
2017-09-26T19:41:03.940Z,32.40
2017-09-26T19:43:31.297Z,32.83
2017-09-26T19:45:58.604Z,33.80
2017-09-26T19:48:25.912Z,32.00
2017-09-26T19:50:54.292Z,31.87
2017-09-26T19:53:21.637Z,34.40
2017-09-26T19:55:48.977Z,32.73
2017-09-26T19:58:16.412Z,33.63
2017-09-26T20:00:43.794Z,33.53
2017-09-26T20:03:11.153Z,31.10
2017-09-26T20:05:38.661Z,32.57
2017-09-26T20:08:05.986Z,31.33
2017-09-26T20:10:33.329Z,33.13
2017-09-26T20:13:00.651Z,32.00
2017-09-26T20:15:27.996Z,33.40
2017-09-26T20:17:55.297Z,33.80
2017-09-26T20:20:22.621Z,33.50
2017-09-26T20:22:49.924Z,34.30
2017-09-26T20:25:17.271Z,34.50
2017-09-26T20:27:44.573Z,32.57
2017-09-26T20:30:11.961Z,32.63
2017-09-26T20:32:39.290Z,35.70
2017-09-26T20:35:06.880Z,33.57
2017-09-26T20:37:34.180Z,34.20
2017-09-26T20:40:01.545Z,32.43
2017-09-26T20:42:28.864Z,35.47
2017-09-26T20:44:56.192Z,35.50
2017-09-26T20:47:23.540Z,34.80
2017-09-26T20:49:51.177Z,35.80
2017-09-26T20:52:18.635Z,36.97
2017-09-26T20:54:45.965Z,35.27
2017-09-26T20:57:13.290Z,35.60
2017-09-26T20:59:40.593Z,37.50
2017-09-26T21:02:07.911Z,34.73
2017-09-26T21:04:35.224Z,33.93
2017-09-26T21:07:03.515Z,35.23
2017-09-26T21:09:30.848Z,35.87
2017-09-26T21:11:58.220Z,35.30
2017-09-26T21:14:25.529Z,36.47
2017-09-26T21:16:52.860Z,35.63
2017-09-26T21:19:20.312Z,34.90
2017-09-26T21:21:47.611Z,37.00
2017-09-26T21:24:14.940Z,38.77
2017-09-26T21:26:42.255Z,37.10
2017-09-26T21:29:09.592Z,37.70
2017-09-26T21:31:36.925Z,37.47
2017-09-26T21:34:04.256Z,38.80
2017-09-26T21:36:31.584Z,37.17
2017-09-26T21:38:58.924Z,37.90
2017-09-26T21:41:26.224Z,38.73
2017-09-26T21:43:53.530Z,38.97
2017-09-26T21:46:20.860Z,39.00
2017-09-26T21:48:48.188Z,37.60
2017-09-26T21:51:15.508Z,38.57
2017-09-26T21:53:42.808Z,37.13
2017-09-26T21:56:10.137Z,37.37
2017-09-26T21:58:37.776Z,37.30
2017-09-26T22:01:05.120Z,38.30
2017-09-26T22:03:32.432Z,38.00
2017-09-26T22:05:59.732Z,37.70
2017-09-26T22:08:27.049Z,38.63
2017-09-26T22:10:54.360Z,39.70
2017-09-26T22:13:21.688Z,39.57
2017-09-26T22:15:48.979Z,38.30
2017-09-26T22:18:16.704Z,40.90
2017-09-26T22:20:44.028Z,38.50
2017-09-26T22:23:11.384Z,36.83
2017-09-26T22:25:38.713Z,37.70
2017-09-26T22:28:06.052Z,37.63
2017-09-26T22:30:33.366Z,38.70
2017-09-26T22:33:00.664Z,37.87
2017-09-26T22:35:28.000Z,37.07
2017-09-26T22:37:55.312Z,37.20
2017-09-26T22:40:22.644Z,36.27
2017-09-26T22:42:49.940Z,35.97
2017-09-26T22:45:17.268Z,36.43
2017-09-26T22:47:44.581Z,35.90
2017-09-26T22:50:12.877Z,36.93
2017-09-26T22:52:40.188Z,39.40
2017-09-26T22:55:07.544Z,39.03
2017-09-26T22:57:34.880Z,40.20
2017-09-26T23:00:02.245Z,39.47
2017-09-26T23:02:29.852Z,39.63
2017-09-26T23:04:57.158Z,39.47
2017-09-26T23:07:24.477Z,38.93
2017-09-26T23:09:51.781Z,39.77
2017-09-26T23:12:19.144Z,43.17
2017-09-26T23:14:46.785Z,38.50
2017-09-26T23:17:14.128Z,38.87
2017-09-26T23:19:41.480Z,40.60
2017-09-26T23:22:08.808Z,38.77
2017-09-26T23:24:36.132Z,40.63
2017-09-26T23:27:03.475Z,39.00
2017-09-26T23:29:30.793Z,37.57
2017-09-26T23:31:58.101Z,39.30
2017-09-26T23:34:25.424Z,38.43
2017-09-26T23:36:52.769Z,40.70
2017-09-26T23:39:20.118Z,41.10
2017-09-26T23:41:47.420Z,39.90
2017-09-26T23:44:14.760Z,38.43
2017-09-26T23:46:42.071Z,37.40
2017-09-26T23:49:09.383Z,36.20
2017-09-26T23:51:36.705Z,36.70
2017-09-26T23:54:04.016Z,36.67
2017-09-26T23:56:31.344Z,35.17
2017-09-26T23:58:58.649Z,35.77
